Terminal Aerodrome Forecast
Issued by NWS

Home | Current Version | Previous Version | Graphics & Text | Print | Product List | Glossary On
Versions: 1 2 3 4 5 6 7 8 9 10 11 12 13
000
FTUS45 KGGW 190527
TAFGDV
TAF
KGDV 190527Z 1906/2006 06005KT P6SM FEW110
     FM190900 04005KT 4SM BR SCT070
     FM191200 09005KT 1SM BR SCT004 BKN016
     FM191600 10008KT P6SM SCT090=

USA.gov is the U.S. government's official web portal to all federal, state and local government web resources and services.